createdAt,value
2022-12-15T00:00:17.308Z,89.83
2022-12-15T00:03:02.948Z,89.05
2022-12-15T00:05:50.169Z,89.78
2022-12-15T00:08:36.365Z,89.46
2022-12-15T00:11:22.321Z,90.11
2022-12-15T00:14:07.761Z,90.08
2022-12-15T00:16:53.223Z,90.23
2022-12-15T00:19:38.667Z,89.26
2022-12-15T00:22:25.036Z,89.54
2022-12-15T00:25:10.647Z,90.25
2022-12-15T00:27:55.978Z,89.61
2022-12-15T00:30:41.463Z,89.93
2022-12-15T00:33:29.301Z,89.81
2022-12-15T00:36:17.816Z,90.14
2022-12-15T00:38:45.593Z,90.35
2022-12-15T00:41:16.488Z,90.51
2022-12-15T00:43:44.305Z,90.26
2022-12-15T00:46:30.349Z,90.36
2022-12-15T00:48:57.492Z,89.22
2022-12-15T00:51:43.664Z,90.20
2022-12-15T00:54:29.542Z,89.56
2022-12-15T00:57:15.635Z,90.05
2022-12-15T01:00:01.235Z,89.23
2022-12-15T01:02:46.692Z,89.45
2022-12-15T01:05:32.033Z,89.50
2022-12-15T01:08:18.492Z,88.74
2022-12-15T01:11:03.837Z,88.12
2022-12-15T01:13:49.771Z,88.06
2022-12-15T01:16:35.793Z,87.85
2022-12-15T01:19:21.003Z,87.88
2022-12-15T01:21:49.606Z,87.55
2022-12-15T01:24:16.465Z,88.23
2022-12-15T01:26:43.360Z,88.34
2022-12-15T01:29:10.202Z,88.98
2022-12-15T01:31:37.088Z,88.59
2022-12-15T01:34:03.952Z,88.43
2022-12-15T01:36:31.174Z,88.15
2022-12-15T01:38:57.976Z,88.94
2022-12-15T01:41:25.083Z,88.28
2022-12-15T01:43:51.955Z,89.16
2022-12-15T01:46:24.807Z,88.18
2022-12-15T01:49:23.814Z,88.48
2022-12-15T01:51:56.032Z,89.07
2022-12-15T01:54:33.587Z,89.67
2022-12-15T01:57:07.100Z,88.59
2022-12-15T01:59:39.426Z,88.70
2022-12-15T02:02:06.488Z,88.25
2022-12-15T02:04:34.313Z,88.34
2022-12-15T02:07:01.096Z,88.67
2022-12-15T02:09:28.581Z,89.50
2022-12-15T02:11:55.276Z,89.08
2022-12-15T02:14:44.917Z,89.11
2022-12-15T02:17:33.781Z,89.33
2022-12-15T02:20:50.298Z,89.06
2022-12-15T02:24:32.832Z,89.14
2022-12-15T02:27:36.876Z,89.48
2022-12-15T02:30:18.593Z,88.63
2022-12-15T02:33:01.370Z,88.97
2022-12-15T02:35:56.150Z,89.08
2022-12-15T02:38:49.312Z,89.49
2022-12-15T02:41:36.473Z,89.57
2022-12-15T02:44:56.481Z,89.05
2022-12-15T02:47:31.443Z,89.25
2022-12-15T02:50:25.295Z,88.86
2022-12-15T02:53:07.043Z,89.02
2022-12-15T02:56:19.118Z,89.47
2022-12-15T02:59:33.110Z,88.63
2022-12-15T03:02:07.590Z,89.08
2022-12-15T03:04:34.732Z,88.60
2022-12-15T03:07:09.337Z,89.93
2022-12-15T03:09:36.350Z,89.71
2022-12-15T03:12:03.323Z,89.53
2022-12-15T03:14:30.279Z,88.69
2022-12-15T03:16:57.193Z,89.75
2022-12-15T03:19:24.278Z,88.83
2022-12-15T03:21:51.305Z,88.73
2022-12-15T03:24:18.095Z,88.60
2022-12-15T03:26:48.513Z,89.58
2022-12-15T03:29:16.448Z,88.80
2022-12-15T03:31:44.369Z,88.98
2022-12-15T03:34:11.427Z,89.46
2022-12-15T03:36:38.516Z,90.03
2022-12-15T03:39:05.599Z,89.09
2022-12-15T03:41:32.753Z,89.28
2022-12-15T03:44:00.725Z,89.29
2022-12-15T03:46:27.742Z,89.95
2022-12-15T03:48:54.665Z,89.72
2022-12-15T03:51:21.837Z,89.72
2022-12-15T03:53:49.275Z,89.28
2022-12-15T03:56:17.296Z,90.04
2022-12-15T03:58:44.132Z,90.43
2022-12-15T04:01:27.938Z,89.90
2022-12-15T04:04:00.594Z,90.47
2022-12-15T04:06:29.434Z,90.30
2022-12-15T04:08:56.264Z,90.78
2022-12-15T04:11:23.172Z,91.01
2022-12-15T04:13:50.037Z,90.84
2022-12-15T04:16:20.191Z,91.91
2022-12-15T04:19:07.924Z,91.32
2022-12-15T04:21:34.761Z,92.59
2022-12-15T04:24:20.277Z,92.09
2022-12-15T04:27:05.680Z,92.88
2022-12-15T04:29:51.177Z,93.76
2022-12-15T04:32:36.435Z,93.16
2022-12-15T04:35:21.938Z,93.22
2022-12-15T04:38:07.333Z,93.26
2022-12-15T04:40:52.974Z,92.83
2022-12-15T04:43:38.195Z,93.26
2022-12-15T04:46:23.937Z,93.05
2022-12-15T04:49:09.687Z,93.16
2022-12-15T04:51:55.080Z,93.15
2022-12-15T04:54:40.596Z,94.73
2022-12-15T04:57:25.987Z,93.95
2022-12-15T05:00:11.484Z,92.94
2022-12-15T05:02:56.815Z,93.00
2022-12-15T05:05:42.179Z,92.59
2022-12-15T05:08:27.603Z,92.85
2022-12-15T05:11:12.887Z,92.59
2022-12-15T05:13:58.270Z,93.37
2022-12-15T05:16:43.689Z,92.45
2022-12-15T05:19:29.035Z,92.53
2022-12-15T05:22:14.622Z,91.85
2022-12-15T05:25:00.094Z,92.35
2022-12-15T05:27:45.399Z,91.68
2022-12-15T05:30:30.722Z,91.35
2022-12-15T05:32:57.563Z,90.54
2022-12-15T05:35:24.651Z,91.08
2022-12-15T05:37:51.655Z,92.23
2022-12-15T05:40:18.474Z,91.97
2022-12-15T05:42:49.974Z,91.74
2022-12-15T05:45:17.192Z,92.44
2022-12-15T05:47:43.982Z,94.04
2022-12-15T05:50:10.856Z,93.54
2022-12-15T05:52:37.684Z,93.56
2022-12-15T05:55:05.800Z,92.48
2022-12-15T05:57:32.580Z,93.02
2022-12-15T05:59:59.370Z,92.35
2022-12-15T06:02:28.536Z,92.11
2022-12-15T06:04:55.502Z,93.50
2022-12-15T06:07:22.457Z,93.00
2022-12-15T06:09:49.321Z,93.30
2022-12-15T06:12:16.573Z,93.92
2022-12-15T06:14:43.391Z,93.32
2022-12-15T06:17:10.209Z,93.08
2022-12-15T06:19:37.007Z,93.26
2022-12-15T06:22:03.862Z,92.02
2022-12-15T06:24:30.700Z,91.45
2022-12-15T06:26:57.601Z,91.12
2022-12-15T06:29:24.480Z,91.93
2022-12-15T06:31:51.367Z,92.17
2022-12-15T06:34:19.344Z,91.56
2022-12-15T06:36:46.355Z,91.69
2022-12-15T06:39:15.385Z,90.87
2022-12-15T06:41:43.578Z,92.00
2022-12-15T06:44:15.558Z,93.97
2022-12-15T06:46:43.425Z,94.12
2022-12-15T06:49:10.486Z,92.57
2022-12-15T06:51:37.626Z,93.28
2022-12-15T06:54:04.625Z,93.39
2022-12-15T06:56:38.699Z,92.50
2022-12-15T06:59:07.468Z,92.92
2022-12-15T07:01:35.060Z,92.21
2022-12-15T07:04:04.740Z,93.37
2022-12-15T07:06:39.320Z,93.21
2022-12-15T07:09:16.024Z,93.06
2022-12-15T07:11:42.878Z,92.15
2022-12-15T07:14:10.413Z,92.75
2022-12-15T07:16:37.317Z,92.76
2022-12-15T07:19:04.314Z,93.95
2022-12-15T07:21:32.033Z,94.80
2022-12-15T07:24:00.021Z,93.92
2022-12-15T07:26:27.566Z,93.86
2022-12-15T07:28:54.650Z,94.32
2022-12-15T07:31:23.011Z,94.51
2022-12-15T07:33:52.089Z,93.85
2022-12-15T07:36:19.116Z,93.79
2022-12-15T07:38:50.442Z,93.52
2022-12-15T07:41:19.076Z,93.86
2022-12-15T07:43:47.063Z,94.75
2022-12-15T07:46:14.155Z,94.45
2022-12-15T07:48:41.074Z,94.83
2022-12-15T07:51:15.318Z,94.32
2022-12-15T07:53:50.006Z,93.53
2022-12-15T07:56:18.398Z,92.15
2022-12-15T07:58:45.461Z,93.00
2022-12-15T08:01:14.285Z,92.36
2022-12-15T08:03:41.711Z,92.79
2022-12-15T08:06:12.446Z,94.62
2022-12-15T08:08:40.338Z,92.66
2022-12-15T08:11:10.210Z,92.44
2022-12-15T08:14:02.098Z,91.33
2022-12-15T08:16:25.680Z,90.53
2022-12-15T08:18:52.753Z,89.38
2022-12-15T08:21:19.684Z,88.68
2022-12-15T08:23:46.784Z,87.90
2022-12-15T08:26:17.115Z,86.52
2022-12-15T08:28:45.068Z,86.07
2022-12-15T08:31:20.353Z,85.46
2022-12-15T08:33:48.469Z,84.26
2022-12-15T08:36:18.471Z,84.96
2022-12-15T08:38:46.827Z,83.33
2022-12-15T08:41:19.629Z,81.96
2022-12-15T08:43:49.259Z,81.53
2022-12-15T08:46:28.013Z,81.04
2022-12-15T08:48:55.618Z,81.16
2022-12-15T08:51:25.381Z,78.71
2022-12-15T08:53:52.756Z,75.37
2022-12-15T08:56:22.207Z,70.85
2022-12-15T08:58:51.007Z,66.94
2022-12-15T09:01:23.682Z,64.94
2022-12-15T09:03:56.272Z,63.95
2022-12-15T09:06:30.295Z,64.27
2022-12-15T09:09:00.339Z,64.31
2022-12-15T09:11:28.911Z,64.02
2022-12-15T09:13:56.483Z,63.55
2022-12-15T09:16:24.030Z,63.53
2022-12-15T09:18:54.679Z,64.52
2022-12-15T09:21:25.998Z,65.46
2022-12-15T09:23:55.795Z,65.91
2022-12-15T09:26:23.723Z,65.88
2022-12-15T09:28:51.148Z,66.09
2022-12-15T09:31:22.975Z,67.01
2022-12-15T09:33:52.469Z,68.14
2022-12-15T09:36:19.739Z,69.01
2022-12-15T09:38:47.874Z,70.69
2022-12-15T09:41:17.426Z,70.99
2022-12-15T09:44:15.912Z,71.48
2022-12-15T09:46:59.696Z,72.06
2022-12-15T09:49:55.319Z,72.38
2022-12-15T09:52:49.389Z,72.09
2022-12-15T09:55:24.827Z,72.00
2022-12-15T09:58:00.047Z,72.46
2022-12-15T10:00:55.267Z,74.23
2022-12-15T10:03:59.651Z,76.11
2022-12-15T10:06:38.015Z,78.75
2022-12-15T10:09:21.379Z,79.86
2022-12-15T10:12:00.536Z,79.78
2022-12-15T10:14:45.895Z,80.39
2022-12-15T10:17:42.532Z,81.11
2022-12-15T10:20:24.394Z,81.71
2022-12-15T10:22:51.385Z,82.59
2022-12-15T10:25:29.730Z,82.74
2022-12-15T10:28:16.207Z,81.08
2022-12-15T10:31:30.064Z,79.99
2022-12-15T10:34:10.910Z,80.47
2022-12-15T10:36:37.945Z,79.91
2022-12-15T10:39:04.801Z,80.33
2022-12-15T10:41:33.673Z,80.27
2022-12-15T10:44:02.545Z,80.66
2022-12-15T10:46:31.835Z,80.28
2022-12-15T10:49:07.614Z,79.98
2022-12-15T10:51:56.231Z,81.45
2022-12-15T10:54:27.262Z,83.04
2022-12-15T10:57:17.603Z,82.70
2022-12-15T10:59:44.644Z,82.71
2022-12-15T11:02:23.989Z,83.44
2022-12-15T11:05:16.760Z,85.00
2022-12-15T11:08:12.249Z,84.92
2022-12-15T11:11:12.748Z,84.12
2022-12-15T11:13:40.554Z,86.62
2022-12-15T11:16:19.327Z,85.37
2022-12-15T11:19:02.233Z,86.48
2022-12-15T11:21:36.907Z,86.81
2022-12-15T11:24:19.962Z,88.22
2022-12-15T11:26:52.250Z,87.65
2022-12-15T11:29:54.723Z,88.73
2022-12-15T11:32:26.885Z,88.09
2022-12-15T11:34:55.122Z,87.22
2022-12-15T11:37:45.034Z,88.53
2022-12-15T11:40:36.595Z,87.60
2022-12-15T11:43:36.826Z,87.02
2022-12-15T11:46:22.647Z,87.71
2022-12-15T11:49:01.654Z,87.43
2022-12-15T11:52:03.356Z,88.47
2022-12-15T11:54:55.352Z,88.55
2022-12-15T11:57:30.817Z,88.87
2022-12-15T12:00:18.485Z,88.62
2022-12-15T12:03:25.481Z,89.63
2022-12-15T12:06:17.410Z,89.21
2022-12-15T12:09:36.270Z,89.29
2022-12-15T12:12:52.549Z,88.91
2022-12-15T12:16:01.828Z,88.69
2022-12-15T12:18:46.549Z,88.67
2022-12-15T12:21:29.976Z,87.19
2022-12-15T12:24:20.005Z,87.68
2022-12-15T12:27:05.546Z,90.26
2022-12-15T12:29:48.754Z,91.04
2022-12-15T12:32:34.936Z,89.91
2022-12-15T12:35:31.969Z,89.15
2022-12-15T12:38:10.680Z,89.19
2022-12-15T12:41:10.745Z,90.72
2022-12-15T12:43:50.257Z,91.37
2022-12-15T12:46:41.960Z,91.65
2022-12-15T12:49:26.093Z,91.87
2022-12-15T12:51:58.509Z,91.41
2022-12-15T12:54:34.349Z,91.29
2022-12-15T12:57:33.553Z,90.12
2022-12-15T13:00:32.467Z,91.20
2022-12-15T13:03:11.621Z,90.19
2022-12-15T13:05:40.993Z,90.25
2022-12-15T13:08:10.374Z,91.22
2022-12-15T13:10:43.407Z,91.46
2022-12-15T13:13:31.518Z,90.94
2022-12-15T13:16:24.690Z,90.47
2022-12-15T13:19:02.956Z,90.97
2022-12-15T13:21:41.834Z,89.62
2022-12-15T13:24:41.379Z,89.39
2022-12-15T13:27:16.962Z,88.24
2022-12-15T13:30:09.314Z,89.53
2022-12-15T13:32:45.647Z,88.74
2022-12-15T13:35:12.405Z,90.40
2022-12-15T13:37:58.904Z,90.62
2022-12-15T13:40:36.095Z,90.63
2022-12-15T13:43:05.890Z,90.16
2022-12-15T13:46:10.360Z,90.15
2022-12-15T13:49:27.535Z,90.29
2022-12-15T13:52:03.309Z,91.46
2022-12-15T13:54:35.934Z,90.62
2022-12-15T13:57:16.390Z,90.75
2022-12-15T13:59:49.385Z,91.05
2022-12-15T14:02:36.062Z,90.31
2022-12-15T14:05:22.079Z,89.77
2022-12-15T14:07:54.936Z,90.58
2022-12-15T14:10:28.109Z,91.74
2022-12-15T14:12:58.100Z,90.65
2022-12-15T14:15:34.183Z,91.23
2022-12-15T14:18:02.354Z,91.41
2022-12-15T14:20:40.282Z,91.73
2022-12-15T14:23:29.354Z,93.08
2022-12-15T14:26:11.333Z,93.11
2022-12-15T14:28:43.900Z,93.14
2022-12-15T14:31:21.581Z,92.85
2022-12-15T14:34:03.438Z,93.45
2022-12-15T14:36:31.502Z,93.66
2022-12-15T14:39:26.388Z,92.79
2022-12-15T14:41:55.192Z,92.64
2022-12-15T14:44:41.858Z,93.11
2022-12-15T14:47:26.940Z,92.30
2022-12-15T14:49:55.864Z,92.65
2022-12-15T14:52:37.775Z,93.82
2022-12-15T14:55:46.360Z,92.72
2022-12-15T14:58:41.293Z,94.26
2022-12-15T15:01:30.974Z,93.32
2022-12-15T15:04:24.520Z,92.71
2022-12-15T15:07:00.653Z,93.29
2022-12-15T15:09:32.640Z,93.82
2022-12-15T15:12:17.430Z,93.31
2022-12-15T15:14:49.645Z,93.30
2022-12-15T15:17:45.273Z,93.40
2022-12-15T15:20:35.775Z,93.94
2022-12-15T15:23:07.466Z,92.21
2022-12-15T15:25:39.249Z,93.64
2022-12-15T15:28:23.007Z,93.07
2022-12-15T15:31:06.102Z,92.63
2022-12-15T15:33:33.478Z,93.83
2022-12-15T15:36:02.602Z,93.32
2022-12-15T15:38:36.110Z,94.17
2022-12-15T15:41:18.379Z,92.63
2022-12-15T15:43:46.048Z,93.13
2022-12-15T15:46:23.252Z,93.86
2022-12-15T15:49:00.871Z,93.86
2022-12-15T15:51:30.598Z,93.88
2022-12-15T15:54:05.532Z,93.85
2022-12-15T15:56:32.468Z,93.86
2022-12-15T15:59:09.424Z,94.06
2022-12-15T16:01:36.355Z,94.36
2022-12-15T16:04:03.303Z,95.27
2022-12-15T16:06:30.225Z,94.83
2022-12-15T16:08:57.068Z,94.23
2022-12-15T16:11:26.728Z,94.98
2022-12-15T16:13:53.560Z,94.28
2022-12-15T16:16:25.152Z,94.71
2022-12-15T16:18:52.033Z,94.03
2022-12-15T16:21:22.214Z,94.59
2022-12-15T16:23:49.665Z,95.54
2022-12-15T16:26:27.259Z,95.77
2022-12-15T16:28:54.220Z,94.77
2022-12-15T16:31:42.059Z,95.03
2022-12-15T16:34:09.215Z,94.55
2022-12-15T16:36:36.273Z,95.65
2022-12-15T16:39:04.121Z,94.99
2022-12-15T16:41:33.068Z,94.52
2022-12-15T16:43:59.867Z,93.94
2022-12-15T16:46:26.785Z,94.12
2022-12-15T16:48:53.700Z,94.72
2022-12-15T16:51:38.948Z,94.08
2022-12-15T16:54:06.711Z,94.81
2022-12-15T16:56:33.802Z,93.98
2022-12-15T16:59:31.378Z,95.08
2022-12-15T17:01:48.256Z,96.23
2022-12-15T17:04:16.646Z,96.04
2022-12-15T17:06:43.748Z,96.34
2022-12-15T17:09:21.161Z,95.25
2022-12-15T17:11:48.403Z,94.25
2022-12-15T17:14:15.863Z,96.33
2022-12-15T17:16:42.755Z,95.25
2022-12-15T17:19:09.589Z,95.50
2022-12-15T17:21:49.882Z,94.46
2022-12-15T17:24:20.007Z,94.40
2022-12-15T17:26:47.010Z,94.74
2022-12-15T17:29:20.920Z,93.98
2022-12-15T17:31:47.908Z,95.11
2022-12-15T17:34:32.385Z,95.39
2022-12-15T17:37:03.031Z,94.74
2022-12-15T17:39:31.116Z,95.08
2022-12-15T17:42:01.148Z,94.96
2022-12-15T17:44:35.032Z,94.37
2022-12-15T17:47:04.395Z,95.45
2022-12-15T17:49:36.080Z,95.44
2022-12-15T17:52:16.899Z,94.91
2022-12-15T17:54:43.953Z,94.66
2022-12-15T17:57:13.940Z,95.22
2022-12-15T17:59:40.891Z,95.86
2022-12-15T18:02:13.266Z,96.39
2022-12-15T18:04:41.484Z,96.36
2022-12-15T18:07:20.339Z,96.95
2022-12-15T18:09:48.797Z,95.02
2022-12-15T18:12:26.099Z,96.35
2022-12-15T18:14:53.802Z,96.09
2022-12-15T18:17:21.109Z,95.59
2022-12-15T18:19:48.218Z,94.54
2022-12-15T18:22:22.259Z,94.99
2022-12-15T18:24:51.361Z,94.53
2022-12-15T18:27:27.864Z,95.70
2022-12-15T18:29:56.464Z,95.70
2022-12-15T18:32:26.277Z,95.41
2022-12-15T18:34:54.054Z,95.20
2022-12-15T18:37:24.540Z,94.30
2022-12-15T18:39:51.509Z,94.45
2022-12-15T18:42:21.418Z,95.29
2022-12-15T18:44:51.069Z,94.59
2022-12-15T18:47:20.975Z,94.32
2022-12-15T18:49:47.887Z,94.02
2022-12-15T18:52:30.033Z,94.12
2022-12-15T18:55:00.136Z,94.99
2022-12-15T18:57:35.836Z,94.82
2022-12-15T19:00:17.459Z,94.78
2022-12-15T19:02:44.406Z,94.44
2022-12-15T19:05:27.384Z,94.26
2022-12-15T19:08:10.085Z,93.48
2022-12-15T19:10:41.871Z,94.43
2022-12-15T19:13:17.774Z,94.73
2022-12-15T19:15:45.499Z,94.48
2022-12-15T19:18:41.712Z,94.95
2022-12-15T19:21:44.099Z,94.70
2022-12-15T19:24:48.515Z,94.29
2022-12-15T19:27:23.197Z,95.16
2022-12-15T19:29:50.920Z,94.70
2022-12-15T19:32:17.793Z,94.37
2022-12-15T19:34:44.693Z,95.24
2022-12-15T19:37:22.391Z,94.06
2022-12-15T19:39:49.546Z,93.62
2022-12-15T19:42:25.500Z,94.61
2022-12-15T19:44:52.320Z,94.42
2022-12-15T19:47:19.249Z,93.76
2022-12-15T19:49:46.108Z,94.45
2022-12-15T19:52:17.793Z,93.62
2022-12-15T19:54:47.257Z,93.29
2022-12-15T19:57:17.591Z,93.54
2022-12-15T19:59:44.981Z,94.23
2022-12-15T20:02:20.381Z,93.79
2022-12-15T20:04:48.411Z,93.40
2022-12-15T20:07:29.458Z,93.64
2022-12-15T20:09:57.995Z,93.82
2022-12-15T20:12:25.117Z,93.11
2022-12-15T20:14:52.325Z,94.46
2022-12-15T20:17:19.112Z,93.41
2022-12-15T20:19:46.114Z,93.11
2022-12-15T20:22:19.186Z,93.46
2022-12-15T20:24:47.970Z,93.63
2022-12-15T20:27:17.790Z,93.84
2022-12-15T20:29:45.361Z,93.52
2022-12-15T20:32:19.863Z,94.19
2022-12-15T20:34:47.060Z,93.11
2022-12-15T20:37:29.387Z,92.54
2022-12-15T20:39:57.812Z,92.10
2022-12-15T20:42:25.480Z,93.50
2022-12-15T20:44:52.293Z,92.25
2022-12-15T20:47:26.478Z,90.94
2022-12-15T20:49:54.900Z,92.11
2022-12-15T20:52:26.292Z,92.06
2022-12-15T20:54:54.220Z,91.24
2022-12-15T20:57:21.475Z,91.70
2022-12-15T20:59:48.371Z,91.32
2022-12-15T21:02:22.354Z,92.06
2022-12-15T21:04:50.821Z,91.14
2022-12-15T21:07:18.751Z,91.12
2022-12-15T21:09:45.568Z,90.72
2022-12-15T21:12:27.621Z,90.13
2022-12-15T21:14:55.070Z,90.23
2022-12-15T21:17:25.623Z,89.68
2022-12-15T21:19:52.832Z,90.18
2022-12-15T21:22:25.494Z,90.40
2022-12-15T21:24:55.304Z,90.75
2022-12-15T21:27:22.764Z,90.93
2022-12-15T21:29:52.599Z,90.53
2022-12-15T21:32:20.873Z,90.72
2022-12-15T21:34:47.760Z,90.30
2022-12-15T21:37:27.443Z,90.64
2022-12-15T21:39:55.093Z,90.30
2022-12-15T21:42:22.518Z,89.94
2022-12-15T21:44:49.375Z,90.30
2022-12-15T21:47:49.745Z,89.82
2022-12-15T21:50:19.702Z,88.83
2022-12-15T21:52:47.646Z,89.21
2022-12-15T21:55:21.272Z,89.11
2022-12-15T21:57:48.121Z,88.92
2022-12-15T22:00:17.639Z,90.53
2022-12-15T22:02:46.633Z,89.01
2022-12-15T22:05:22.557Z,89.30
2022-12-15T22:07:50.515Z,89.09
2022-12-15T22:10:19.112Z,88.55
2022-12-15T22:12:57.407Z,89.22
2022-12-15T22:15:26.233Z,87.88
2022-12-15T22:17:53.058Z,86.73
2022-12-15T22:20:24.029Z,88.07
2022-12-15T22:22:51.301Z,88.14
2022-12-15T22:25:25.049Z,88.43
2022-12-15T22:27:52.620Z,87.55
2022-12-15T22:30:26.317Z,87.34
2022-12-15T22:32:55.811Z,86.53
2022-12-15T22:35:25.910Z,86.76
2022-12-15T22:37:53.956Z,88.35
2022-12-15T22:40:23.294Z,87.48
2022-12-15T22:42:57.800Z,87.08
2022-12-15T22:45:24.948Z,86.09
2022-12-15T22:47:55.060Z,85.54
2022-12-15T22:50:26.808Z,85.62
2022-12-15T22:52:55.215Z,86.49
2022-12-15T22:55:24.364Z,85.48
2022-12-15T22:58:01.434Z,85.62
2022-12-15T23:00:28.533Z,85.51
2022-12-15T23:05:29.260Z,85.68
2022-12-15T23:07:56.188Z,84.69
2022-12-15T23:10:42.031Z,85.05
2022-12-15T23:13:08.925Z,84.34
2022-12-15T23:15:54.773Z,84.19
2022-12-15T23:18:21.681Z,84.63
2022-12-15T23:20:48.630Z,84.25
2022-12-15T23:23:15.509Z,84.74
2022-12-15T23:25:42.443Z,83.83
2022-12-15T23:28:09.310Z,84.03
2022-12-15T23:30:36.325Z,84.17
2022-12-15T23:33:03.237Z,83.61
2022-12-15T23:35:30.091Z,83.36
2022-12-15T23:37:58.485Z,82.74
2022-12-15T23:40:25.343Z,83.03
2022-12-15T23:42:53.612Z,83.62
2022-12-15T23:45:20.826Z,82.44
2022-12-15T23:47:47.743Z,83.70
2022-12-15T23:50:14.788Z,83.62
2022-12-15T23:52:41.597Z,83.43
2022-12-15T23:55:11.582Z,82.93
2022-12-15T23:57:39.344Z,83.03
